Terminal Aerodrome Forecast
Issued by NWS Greer, SC

Home | Current Version | Previous Version | Text Only | Print | Product List | Glossary On
Versions: 1 2 3 4 5 6 7 8 9 10 11 12 13 14 15 16 17 18 19 20 21 22 23 24 25 26
000
FTUS42 KGSP 071736
TAFGSP
TAF
KGSP 071736Z 0718/0818 15003KT P6SM SCT045
      TEMPO 0718/0722 BKN045
     FM072200 12003KT P6SM BKN050
     FM080600 VRB02KT 3SM BR BKN030
     FM081200 30003KT P6SM OVC035
     FM081500 35007KT P6SM OVC070=

USA.gov is the U.S. government's official web portal to all federal, state and local government web resources and services.